Time;durP1;ratioP1;P1;durP2;ratioP2;P2;SDS_P1;SDS_P2;PMS_P1;PMS_P2;Temp;Humidity;BMP_temperature;BMP_pressure;BME280_temperature;BME280_humidity;BME280_pressure;Samples;Min_cycle;Max_cycle;Signal;HPM_P1;HPM_P2
2024/04/05 00:01:03;;;;;;;497.43;473.60;;;11.10;99.90;;;;;;5071153;28;20451;-65
2024/04/05 00:03:30;;;;;;;505.30;480.10;;;11.10;99.90;;;;;;5078443;28;20564;-65
2024/04/05 00:05:56;;;;;;;509.87;482.97;;;11.10;99.90;;;;;;5081082;28;20481;-65
2024/04/05 00:08:25;;;;;;;499.13;473.53;;;11.10;99.90;;;;;;5077254;28;20465;-65
2024/04/05 00:10:52;;;;;;;495.87;470.73;;;11.10;99.90;;;;;;5072792;28;20462;-65
2024/04/05 00:13:21;;;;;;;504.83;478.83;;;11.20;99.90;;;;;;5071316;28;20537;-65
2024/04/05 00:15:47;;;;;;;511.30;484.50;;;11.20;99.90;;;;;;5079947;28;20449;-65
2024/04/05 00:18:14;;;;;;;510.97;483.80;;;11.20;99.90;;;;;;5071469;28;20933;-65
2024/04/05 00:20:40;;;;;;;503.03;477.00;;;11.20;99.90;;;;;;5079782;28;20451;-65
2024/04/05 00:23:06;;;;;;;505.07;478.97;;;11.20;99.90;;;;;;5071701;28;20985;-65
2024/04/05 00:25:32;;;;;;;498.47;472.40;;;11.20;99.90;;;;;;5079815;28;20227;-65
2024/04/05 00:28:00;;;;;;;498.50;472.73;;;11.20;99.90;;;;;;5074891;28;20458;-65
2024/04/05 00:30:26;;;;;;;490.37;465.87;;;11.20;99.90;;;;;;5081056;28;20211;-65
2024/04/05 00:32:53;;;;;;;479.73;457.77;;;11.30;99.90;;;;;;5085051;28;20473;-64
2024/04/05 00:35:19;;;;;;;481.17;457.77;;;11.40;99.90;;;;;;5074943;28;20200;-65
2024/04/05 00:37:45;;;;;;;486.57;463.20;;;11.30;99.90;;;;;;5082964;28;20468;-64
2024/04/05 00:40:11;;;;;;;487.80;463.67;;;11.30;99.90;;;;;;5074361;28;20226;-65
2024/04/05 00:42:38;;;;;;;485.87;462.87;;;11.30;99.90;;;;;;5074933;28;20454;-65
2024/04/05 00:45:06;;;;;;;482.30;459.40;;;11.30;99.90;;;;;;5083082;28;20247;-65
2024/04/05 00:47:33;;;;;;;484.97;461.37;;;11.30;99.90;;;;;;5074651;28;20458;-65
2024/04/05 00:50:00;;;;;;;466.57;445.43;;;11.40;99.90;;;;;;5074264;28;20457;-65
2024/04/05 00:52:27;;;;;;;473.00;450.87;;;11.50;99.90;;;;;;5082969;28;20454;-63
2024/04/05 00:54:54;;;;;;;468.97;447.40;;;11.50;99.90;;;;;;5082894;28;20450;-63
2024/04/05 00:57:21;;;;;;;455.93;435.43;;;11.50;99.90;;;;;;5083198;28;20537;-63
2024/04/05 00:59:47;;;;;;;454.50;433.73;;;11.50;99.90;;;;;;5082391;28;20458;-63
2024/04/05 01:02:15;;;;;;;449.03;428.73;;;11.50;99.90;;;;;;5079125;28;20453;-63
2024/04/05 01:04:41;;;;;;;449.10;427.80;;;11.50;99.90;;;;;;5085816;28;20485;-63
2024/04/05 01:07:08;;;;;;;445.57;426.33;;;11.50;99.90;;;;;;5073908;28;20465;-63
2024/04/05 01:09:34;;;;;;;435.60;417.60;;;11.50;99.90;;;;;;5073970;28;20462;-63
2024/04/05 01:12:01;;;;;;;414.90;397.70;;;11.40;99.90;;;;;;5074158;28;20867;-62
2024/04/05 01:14:27;;;;;;;418.60;400.77;;;11.40;99.90;;;;;;5074328;28;20220;-63
2024/04/05 01:16:53;;;;;;;423.63;405.77;;;11.40;99.90;;;;;;5075824;28;20465;-63
2024/04/05 01:19:23;;;;;;;428.80;410.10;;;11.30;99.90;;;;;;5080124;28;20204;-61
2024/04/05 01:21:52;;;;;;;439.80;421.03;;;11.20;99.90;;;;;;5082683;28;20514;-63
2024/04/05 01:24:19;;;;;;;456.77;435.70;;;11.20;99.90;;;;;;5079234;28;20473;-63
2024/04/05 01:26:45;;;;;;;462.83;440.80;;;11.20;99.90;;;;;;5085107;28;20463;-62
2024/04/05 01:29:11;;;;;;;471.57;449.57;;;11.20;99.90;;;;;;5082057;28;20465;-63
2024/04/05 01:31:39;;;;;;;493.63;468.73;;;11.20;99.90;;;;;;5073827;28;20454;-63
2024/04/05 01:34:05;;;;;;;499.50;472.50;;;11.10;99.90;;;;;;5073425;28;20719;-62
2024/04/05 01:36:32;;;;;;;503.20;475.60;;;11.10;99.90;;;;;;5082232;28;20485;-63
2024/04/05 01:38:57;;;;;;;513.47;484.37;;;11.00;99.90;;;;;;5084038;28;20592;-63
2024/04/05 01:41:26;;;;;;;513.90;484.20;;;11.00;99.90;;;;;;5079560;28;20461;-62
2024/04/05 01:43:51;;;;;;;520.40;489.00;;;10.90;99.90;;;;;;5081780;28;20231;-63
2024/04/05 01:46:18;;;;;;;515.80;482.70;;;10.90;99.90;;;;;;5078578;28;20481;-61
2024/04/05 01:48:44;;;;;;;510.77;478.87;;;11.00;99.90;;;;;;5076687;28;20211;-62
2024/04/05 01:51:11;;;;;;;513.17;482.17;;;11.10;99.90;;;;;;5073044;28;20458;-63
2024/04/05 01:53:36;;;;;;;514.40;481.10;;;11.10;99.90;;;;;;5081904;28;20223;-63
2024/04/05 01:56:04;;;;;;;503.23;470.73;;;11.10;99.90;;;;;;5073331;28;20450;-62
2024/04/05 01:58:31;;;;;;;507.47;474.77;;;11.20;99.90;;;;;;5073273;28;20593;-63
2024/04/05 02:01:01;;;;;;;508.60;475.70;;;11.20;99.90;;;;;;5083707;28;20472;-63
2024/04/05 02:03:27;;;;;;;506.10;475.30;;;11.10;99.90;;;;;;5078391;28;20851;-63
2024/04/05 02:05:54;;;;;;;505.43;473.27;;;11.00;99.90;;;;;;5073166;28;20486;-63
2024/04/05 02:08:19;;;;;;;502.20;471.10;;;10.90;99.90;;;;;;5078688;28;20225;-63
2024/04/05 02:10:46;;;;;;;508.97;475.30;;;10.80;99.90;;;;;;5075417;28;20458;-63
2024/04/05 02:13:12;;;;;;;520.50;485.47;;;10.70;99.90;;;;;;5073023;28;20223;-63
2024/04/05 02:15:45;;;;;;;529.97;492.30;;;10.70;99.90;;;;;;5072814;28;20478;-62
2024/04/05 02:18:11;;;;;;;536.53;497.30;;;10.70;99.90;;;;;;5077301;28;20940;-63
2024/04/05 02:20:40;;;;;;;529.30;489.17;;;10.70;99.90;;;;;;5076512;28;20446;-63
2024/04/05 02:23:06;;;;;;;519.60;480.40;;;10.80;99.90;;;;;;5072586;28;20699;-63
2024/04/05 02:25:33;;;;;;;510.17;471.47;;;11.00;99.90;;;;;;5079994;28;20477;-63
2024/04/05 02:27:59;;;;;;;513.43;474.33;;;10.80;99.90;;;;;;5081849;28;20202;-63
2024/04/05 02:30:25;;;;;;;510.13;471.47;;;10.80;99.90;;;;;;5071943;28;20462;-63
2024/04/05 02:32:53;;;;;;;509.60;470.40;;;10.70;99.90;;;;;;5076907;28;20211;-63
2024/04/05 02:35:19;;;;;;;510.20;470.83;;;10.70;99.90;;;;;;5078378;28;20933;-63
2024/04/05 02:37:45;;;;;;;502.40;463.70;;;10.60;99.90;;;;;;5075193;28;20447;-63
2024/04/05 02:40:12;;;;;;;491.00;453.20;;;10.50;99.90;;;;;;5074969;28;20450;-62
2024/04/05 02:42:38;;;;;;;509.17;468.37;;;10.40;99.90;;;;;;5077853;28;20192;-63
2024/04/05 02:45:05;;;;;;;512.57;471.40;;;10.30;99.90;;;;;;5072054;28;20478;-63
2024/04/05 02:47:31;;;;;;;517.57;476.47;;;10.30;99.90;;;;;;5081375;28;20250;-63
2024/04/05 02:49:59;;;;;;;529.80;486.50;;;10.10;99.90;;;;;;5077708;28;20873;-63
2024/04/05 02:52:25;;;;;;;547.43;501.40;;;10.10;99.90;;;;;;5092903;28;20602;-62
2024/04/05 02:54:52;;;;;;;543.67;496.60;;;10.10;99.90;;;;;;5082766;28;20556;-63
2024/04/05 02:57:17;;;;;;;535.53;490.67;;;10.10;99.90;;;;;;5074638;28;20663;-62
2024/04/05 02:59:44;;;;;;;530.13;484.03;;;10.00;99.90;;;;;;5076992;28;20504;-63
2024/04/05 03:02:10;;;;;;;539.33;491.60;;;10.10;99.90;;;;;;5077088;28;20200;-63
2024/04/05 03:04:37;;;;;;;530.97;483.37;;;10.10;99.90;;;;;;5076114;28;20565;-63
2024/04/05 03:07:04;;;;;;;524.00;477.20;;;10.10;99.90;;;;;;5075172;28;20199;-63
2024/04/05 03:09:32;;;;;;;528.87;480.40;;;10.00;99.90;;;;;;5083950;28;20502;-63
2024/04/05 03:11:58;;;;;;;545.73;496.70;;;10.00;99.90;;;;;;5072918;28;20457;-63
2024/04/05 03:14:25;;;;;;;540.67;492.17;;;10.10;99.90;;;;;;5080837;28;20486;-62
2024/04/05 03:16:51;;;;;;;560.23;511.37;;;10.10;99.90;;;;;;5080450;28;20442;-63
2024/04/05 03:19:17;;;;;;;540.43;491.93;;;10.10;99.90;;;;;;5072105;28;20458;-63
2024/04/05 03:21:43;;;;;;;528.90;481.13;;;10.10;99.90;;;;;;5072403;28;20196;-63
2024/04/05 03:24:11;;;;;;;539.77;491.70;;;10.10;99.90;;;;;;5072059;28;20474;-63
2024/04/05 03:26:38;;;;;;;562.00;514.03;;;10.10;99.90;;;;;;5079565;28;20215;-63
2024/04/05 03:29:05;;;;;;;569.37;520.60;;;10.20;99.90;;;;;;5071410;28;20560;-63
2024/04/05 03:31:32;;;;;;;575.23;526.60;;;10.30;99.90;;;;;;5071999;28;20845;-62
2024/04/05 03:33:58;;;;;;;568.43;520.57;;;10.40;99.90;;;;;;5080239;28;20526;-63
2024/04/05 03:36:24;;;;;;;541.97;495.00;;;10.40;99.90;;;;;;5071870;28;20458;-63
2024/04/05 03:38:51;;;;;;;551.67;503.93;;;10.50;99.90;;;;;;5079756;28;20452;-63
2024/04/05 03:41:19;;;;;;;525.70;479.07;;;10.50;99.90;;;;;;5071738;28;20200;-63
2024/04/05 03:43:45;;;;;;;534.93;487.23;;;10.60;99.90;;;;;;5080030;28;20473;-63
2024/04/05 03:46:12;;;;;;;531.70;485.80;;;10.60;99.90;;;;;;5076102;28;20473;-62
2024/04/05 03:48:37;;;;;;;531.90;487.10;;;10.60;99.90;;;;;;5076360;28;20226;-62
2024/04/05 03:51:05;;;;;;;522.57;478.37;;;10.70;99.90;;;;;;5083250;28;20453;-63
2024/04/05 03:53:30;;;;;;;509.97;466.60;;;10.70;99.90;;;;;;5083580;28;20222;-63
2024/04/05 03:55:57;;;;;;;493.73;450.17;;;10.80;99.90;;;;;;5080933;28;20457;-63
2024/04/05 03:58:25;;;;;;;497.97;455.00;;;10.70;99.90;;;;;;5080045;28;20283;-63
2024/04/05 04:00:52;;;;;;;504.77;462.33;;;10.70;99.90;;;;;;5073104;28;20462;-63
2024/04/05 04:03:18;;;;;;;504.40;462.20;;;10.70;99.90;;;;;;5075680;28;20476;-63
2024/04/05 04:05:45;;;;;;;500.27;457.87;;;10.70;99.90;;;;;;5075478;28;20478;-63
2024/04/05 04:08:11;;;;;;;498.17;456.63;;;10.80;99.90;;;;;;5075617;28;20515;-63
2024/04/05 04:10:39;;;;;;;490.67;449.87;;;10.80;99.90;;;;;;5075188;28;20458;-63
2024/04/05 04:13:05;;;;;;;504.90;462.50;;;10.80;99.90;;;;;;5075195;28;20226;-63
2024/04/05 04:15:33;;;;;;;517.40;475.40;;;10.80;99.90;;;;;;5082576;28;20544;-63
2024/04/05 04:17:58;;;;;;;539.53;496.97;;;10.80;99.90;;;;;;5076097;28;20457;-63
2024/04/05 04:20:25;;;;;;;568.53;523.20;;;10.80;99.90;;;;;;5083355;28;20461;-63
2024/04/05 04:22:51;;;;;;;641.23;592.13;;;10.80;99.90;;;;;;5083255;28;20622;-63
2024/04/05 04:25:18;;;;;;;758.40;702.10;;;10.80;99.90;;;;;;5075538;28;20585;-63
2024/04/05 04:27:43;;;;;;;838.87;771.87;;;10.80;99.90;;;;;;5075427;28;20196;-62
2024/04/05 04:30:10;;;;;;;898.10;807.13;;;10.80;99.90;;;;;;5082520;28;20470;-63
2024/04/05 04:32:38;;;;;;;863.47;773.77;;;10.80;99.90;;;;;;5074926;28;20200;-63
2024/04/05 04:35:06;;;;;;;878.50;786.90;;;10.80;99.90;;;;;;5074841;28;20965;-63
2024/04/05 04:37:34;;;;;;;906.20;814.47;;;10.80;99.90;;;;;;5074480;28;20443;-63
2024/04/05 04:40:01;;;;;;;929.30;837.97;;;10.80;99.90;;;;;;5082944;28;20461;-63
2024/04/05 04:42:27;;;;;;;944.17;852.97;;;10.80;99.90;;;;;;5074769;28;20482;-63
2024/04/05 04:44:55;;;;;;;946.83;855.40;;;10.80;99.90;;;;;;5083113;28;20507;-63
2024/04/05 04:47:21;;;;;;;950.30;856.53;;;10.80;99.90;;;;;;5083090;28;20224;-63
2024/04/05 04:49:49;;;;;;;972.40;877.53;;;10.80;99.90;;;;;;5083487;28;20928;-62
2024/04/05 04:52:15;;;;;;;1039.97;941.13;;;10.80;99.90;;;;;;5081501;28;20325;-63
2024/04/05 04:54:42;;;;;;;1144.43;999.90;;;10.80;99.90;;;;;;5074393;28;20996;-61
2024/04/05 04:57:08;;;;;;;1164.57;999.90;;;10.80;99.90;;;;;;5078381;28;20253;-63
2024/04/05 04:59:35;;;;;;;1156.20;999.90;;;10.90;99.90;;;;;;5078476;28;20454;-63
2024/04/05 05:02:01;;;;;;;1172.80;999.90;;;10.90;99.90;;;;;;5074753;28;20458;-62
2024/04/05 05:04:28;;;;;;;1178.13;999.90;;;10.90;99.90;;;;;;5074131;28;21001;-63
2024/04/05 05:06:55;;;;;;;1173.70;999.90;;;10.90;99.90;;;;;;5082647;28;20219;-63
2024/04/05 05:09:22;;;;;;;1174.03;999.90;;;10.90;99.90;;;;;;5082152;28;20939;-63
2024/04/05 05:11:49;;;;;;;1161.80;999.90;;;10.90;99.90;;;;;;5083018;28;20454;-63
2024/04/05 05:14:16;;;;;;;1163.73;999.90;;;10.90;99.90;;;;;;5081238;28;20997;-63
2024/04/05 05:16:42;;;;;;;1158.03;999.90;;;10.90;99.90;;;;;;5074222;28;20454;-63
2024/04/05 05:19:09;;;;;;;1148.60;999.90;;;11.00;99.90;;;;;;5081647;28;20454;-63
2024/04/05 05:21:35;;;;;;;1134.73;999.90;;;11.00;99.90;;;;;;5074620;28;20197;-63
2024/04/05 05:24:04;;;;;;;1147.63;999.90;;;11.00;99.90;;;;;;5074056;28;20561;-62
2024/04/05 05:26:30;;;;;;;1152.37;999.90;;;11.00;99.90;;;;;;5073961;28;20251;-63
2024/04/05 05:28:57;;;;;;;1147.53;999.90;;;11.00;99.90;;;;;;5075542;28;20489;-63
2024/04/05 05:31:23;;;;;;;1157.47;999.90;;;11.10;99.90;;;;;;5079808;28;20196;-63
2024/04/05 05:33:50;;;;;;;1166.33;999.90;;;11.10;99.90;;;;;;5081787;28;21061;-63
2024/04/05 05:36:16;;;;;;;1156.57;999.90;;;11.20;99.90;;;;;;5082369;28;20565;-63
2024/04/05 05:38:43;;;;;;;1158.77;999.90;;;11.30;99.90;;;;;;5073599;28;20465;-63
2024/04/05 05:41:10;;;;;;;1181.53;999.90;;;11.30;99.90;;;;;;5073758;28;20197;-63
2024/04/05 05:43:37;;;;;;;1163.00;999.90;;;11.30;99.90;;;;;;5073819;28;20575;-63
2024/04/05 05:46:03;;;;;;;1179.17;999.90;;;11.40;99.90;;;;;;5076504;28;20558;-63
2024/04/05 05:48:30;;;;;;;1178.40;999.90;;;11.40;99.90;;;;;;5078745;28;20497;-63
2024/04/05 05:50:55;;;;;;;1182.40;999.90;;;11.50;99.90;;;;;;5081629;28;20456;-63
2024/04/05 05:53:22;;;;;;;1179.87;999.90;;;11.40;99.90;;;;;;5081995;28;20478;-63
2024/04/05 05:55:49;;;;;;;1171.30;999.90;;;11.50;99.90;;;;;;5073106;28;20223;-63
2024/04/05 05:58:17;;;;;;;1164.20;999.90;;;11.60;99.90;;;;;;5074104;28;20462;-63
2024/04/05 06:00:43;;;;;;;1169.97;999.90;;;11.60;99.90;;;;;;5082434;28;20449;-63
2024/04/05 06:03:11;;;;;;;1159.40;999.90;;;11.50;99.90;;;;;;5093633;28;20473;-63
2024/04/05 06:05:36;;;;;;;1171.70;999.90;;;11.70;99.90;;;;;;5076593;28;20911;-63
2024/04/05 06:08:04;;;;;;;1154.67;999.90;;;11.70;99.90;;;;;;5075329;28;20454;-63
2024/04/05 06:10:30;;;;;;;1156.37;999.90;;;11.90;99.90;;;;;;5080008;28;20279;-63
2024/04/05 06:12:56;;;;;;;1132.17;999.90;;;12.10;99.90;;;;;;5082667;28;20586;-63
2024/04/05 06:15:24;;;;;;;1120.60;999.90;;;12.30;99.90;;;;;;5072787;28;20206;-63
2024/04/05 06:17:50;;;;;;;1071.90;989.97;;;12.40;99.90;;;;;;5079606;28;20454;-65
2024/04/05 06:20:16;;;;;;;1055.17;975.83;;;12.50;99.90;;;;;;5073494;28;20953;-65
2024/04/05 06:22:43;;;;;;;1008.33;931.67;;;12.60;99.90;;;;;;5081789;28;20453;-63
2024/04/05 06:25:10;;;;;;;981.03;907.37;;;12.70;99.90;;;;;;5077618;28;20460;-63
2024/04/05 06:27:37;;;;;;;953.40;881.90;;;12.70;99.90;;;;;;5081198;28;20477;-63
2024/04/05 06:30:03;;;;;;;939.07;867.47;;;12.70;99.90;;;;;;5074994;28;20457;-63
2024/04/05 06:32:32;;;;;;;908.10;838.50;;;12.70;99.90;;;;;;5085718;28;20465;-64
2024/04/05 06:34:59;;;;;;;904.63;835.00;;;12.80;99.90;;;;;;5074604;28;21012;-63
2024/04/05 06:37:27;;;;;;;882.57;814.50;;;12.80;99.90;;;;;;5092091;28;20479;-63
2024/04/05 06:39:53;;;;;;;887.77;820.23;;;12.90;99.90;;;;;;5081456;28;20446;-63
2024/04/05 06:42:20;;;;;;;874.90;810.47;;;13.00;99.90;;;;;;5073690;28;20455;-65
2024/04/05 06:44:49;;;;;;;859.67;796.10;;;13.10;99.90;;;;;;5073040;28;20477;-63
2024/04/05 06:47:16;;;;;;;844.63;783.33;;;13.10;99.90;;;;;;5075659;28;20478;-64
2024/04/05 06:49:43;;;;;;;836.83;777.60;;;13.20;99.90;;;;;;5080461;28;20616;-63
2024/04/05 06:52:11;;;;;;;838.20;779.53;;;13.30;99.90;;;;;;5073764;28;20884;-63
2024/04/05 06:54:42;;;;;;;837.50;779.60;;;13.30;99.90;;;;;;5072334;28;20540;-63
2024/04/05 06:57:09;;;;;;;835.00;779.53;;;13.40;99.90;;;;;;5072429;28;20953;-63
2024/04/05 06:59:35;;;;;;;834.63;780.77;;;13.50;99.90;;;;;;5071822;28;20514;-64
2024/04/05 07:02:03;;;;;;;842.88;790.75;;;13.60;99.90;;;;;;5077281;28;20448;-63
2024/04/05 07:04:29;;;;;;;845.13;795.90;;;13.70;99.90;;;;;;5100615;28;20261;-64
2024/04/05 07:06:57;;;;;;;845.27;797.50;;;13.70;99.90;;;;;;5081442;28;20505;-64
2024/04/05 07:09:23;;;;;;;861.00;812.47;;;13.70;99.90;;;;;;5071599;28;20451;-64
2024/04/05 07:11:50;;;;;;;863.30;815.90;;;13.80;99.90;;;;;;5072114;28;20826;-64
2024/04/05 07:14:17;;;;;;;876.50;827.80;;;13.80;99.90;;;;;;5072252;28;20497;-64
2024/04/05 07:16:44;;;;;;;880.30;831.60;;;13.80;99.90;;;;;;5072204;28;21021;-64
2024/04/05 07:19:10;;;;;;;862.43;817.37;;;13.90;99.90;;;;;;5079241;28;20454;-64
2024/04/05 07:21:37;;;;;;;855.03;811.17;;;13.90;99.90;;;;;;5071833;28;20484;-63
2024/04/05 07:24:05;;;;;;;819.93;781.17;;;14.00;99.90;;;;;;5080035;28;20474;-63
2024/04/05 07:26:32;;;;;;;806.73;769.40;;;14.10;99.90;;;;;;5079339;28;20554;-64
2024/04/05 07:29:02;;;;;;;815.07;777.27;;;14.30;99.90;;;;;;5073045;28;20454;-63
2024/04/05 07:31:30;;;;;;;769.90;735.97;;;14.40;99.90;;;;;;5078826;28;20457;-64
2024/04/05 07:33:55;;;;;;;739.80;709.00;;;14.50;99.90;;;;;;5073299;28;20470;-64
2024/04/05 07:36:22;;;;;;;712.30;683.10;;;14.60;99.90;;;;;;5080029;28;20811;-63
2024/04/05 07:38:49;;;;;;;701.63;673.13;;;14.60;99.90;;;;;;5072162;28;20196;-64
2024/04/05 07:41:18;;;;;;;680.20;653.13;;;14.70;99.90;;;;;;5080529;28;20458;-64
2024/04/05 07:43:44;;;;;;;617.73;594.10;;;14.80;99.90;;;;;;5079679;28;20998;-64
2024/04/05 07:46:10;;;;;;;549.13;529.40;;;14.90;99.90;;;;;;5080046;28;20485;-63
2024/04/05 07:48:36;;;;;;;447.20;431.90;;;15.00;99.90;;;;;;5080174;28;20215;-64
2024/04/05 07:51:04;;;;;;;459.87;443.57;;;15.00;99.90;;;;;;5071224;28;20454;-63
2024/04/05 07:53:30;;;;;;;430.40;415.47;;;15.00;99.90;;;;;;5071476;28;20508;-63
2024/04/05 07:55:57;;;;;;;415.83;401.70;;;14.90;99.90;;;;;;5071749;28;20450;-64
2024/04/05 07:58:24;;;;;;;390.57;377.57;;;14.80;99.90;;;;;;5071833;28;20450;-64
2024/04/05 08:00:51;;;;;;;409.07;394.77;;;14.60;99.90;;;;;;5080893;28;20459;-63
2024/04/05 08:03:17;;;;;;;426.50;410.87;;;14.60;99.90;;;;;;5078303;28;20470;-64
2024/04/05 08:05:44;;;;;;;428.17;411.60;;;14.40;99.90;;;;;;5079759;28;20468;-63
2024/04/05 08:08:09;;;;;;;460.10;441.20;;;14.30;99.90;;;;;;5079566;28;20743;-63
2024/04/05 08:10:36;;;;;;;457.47;438.97;;;14.20;99.90;;;;;;5078703;28;20457;-63
2024/04/05 08:13:02;;;;;;;471.50;452.30;;;14.20;99.90;;;;;;5075479;28;20226;-65
2024/04/05 08:15:32;;;;;;;413.43;397.17;;;14.10;99.90;;;;;;5074762;28;20534;-63
2024/04/05 08:17:58;;;;;;;404.77;389.07;;;14.10;99.90;;;;;;5075156;28;20439;-64
2024/04/05 08:20:25;;;;;;;395.77;380.47;;;14.10;99.90;;;;;;5071216;28;20533;-64
2024/04/05 08:22:50;;;;;;;433.50;415.40;;;14.20;99.90;;;;;;5082222;28;20506;-63
2024/04/05 08:25:17;;;;;;;471.27;450.77;;;14.20;99.90;;;;;;5092413;28;20493;-64
2024/04/05 08:27:44;;;;;;;488.07;467.07;;;14.20;99.90;;;;;;5079543;28;20226;-63
2024/04/05 08:30:12;;;;;;;502.47;480.40;;;14.20;99.90;;;;;;5079293;28;20491;-63
2024/04/05 08:32:41;;;;;;;530.40;506.43;;;14.20;99.90;;;;;;5076558;28;20464;-63
2024/04/05 08:35:09;;;;;;;545.40;520.27;;;14.20;99.90;;;;;;5077072;28;20980;-63
2024/04/05 08:37:35;;;;;;;549.40;524.00;;;14.30;99.90;;;;;;5089446;28;20444;-64
2024/04/05 08:40:02;;;;;;;538.77;514.60;;;14.30;99.90;;;;;;5084993;28;20507;-64
2024/04/05 08:42:32;;;;;;;535.30;511.40;;;14.30;99.90;;;;;;5076631;28;20976;-64
2024/04/05 08:44:59;;;;;;;528.10;504.97;;;14.40;99.90;;;;;;5072489;28;20835;-63
2024/04/05 08:47:26;;;;;;;519.83;497.87;;;14.60;99.90;;;;;;5080525;28;20488;-63
2024/04/05 08:49:57;;;;;;;485.50;466.20;;;14.70;99.90;;;;;;5082754;28;20454;-64
2024/04/05 08:52:23;;;;;;;432.43;415.47;;;14.80;99.90;;;;;;5083238;28;20454;-64
2024/04/05 08:54:49;;;;;;;379.90;366.30;;;14.90;99.90;;;;;;5083052;28;20480;-64
2024/04/05 08:57:16;;;;;;;350.47;338.37;;;15.10;99.90;;;;;;5074561;28;20576;-64
2024/04/05 08:59:48;;;;;;;466.93;449.43;;;15.30;99.90;;;;;;5082493;28;20458;-63
2024/04/05 09:02:15;;;;;;;414.50;399.50;;;15.40;99.90;;;;;;5074413;28;20450;-64
2024/04/05 09:04:42;;;;;;;363.67;351.03;;;15.60;99.90;;;;;;5082758;28;20569;-61
2024/04/05 09:07:09;;;;;;;350.87;337.83;;;15.80;99.90;;;;;;5074444;28;20489;-64
2024/04/05 09:09:37;;;;;;;317.67;306.77;;;16.00;99.90;;;;;;5081568;28;20550;-64
2024/04/05 09:12:07;;;;;;;281.60;271.60;;;16.30;99.90;;;;;;5083214;28;20458;-63
2024/04/05 09:14:36;;;;;;;242.07;233.73;;;16.60;99.90;;;;;;5082703;28;21092;-64
2024/04/05 09:17:12;;;;;;;123.13;118.73;;;16.90;99.90;;;;;;5083045;28;20995;-64
2024/04/05 09:19:38;;;;;;;55.90;52.83;;;17.20;99.90;;;;;;5074306;28;20450;-64
2024/04/05 09:22:05;;;;;;;32.53;30.53;;;17.40;99.90;;;;;;5082652;28;20826;-64
2024/04/05 09:24:33;;;;;;;24.30;22.90;;;17.30;99.90;;;;;;5073996;28;20532;-64
2024/04/05 09:27:00;;;;;;;19.90;18.20;;;17.10;99.90;;;;;;5084533;28;20482;-64
2024/04/05 09:29:27;;;;;;;13.63;12.40;;;16.80;99.90;;;;;;5085617;28;20846;-64
2024/04/05 09:31:54;;;;;;;25.20;23.40;;;16.40;99.90;;;;;;5084305;28;20454;-64
2024/04/05 09:34:25;;;;;;;39.20;37.23;;;16.10;99.90;;;;;;5073843;28;20546;-64
2024/04/05 09:36:51;;;;;;;82.70;79.30;;;15.90;99.90;;;;;;5082072;28;20955;-64
2024/04/05 09:39:22;;;;;;;142.67;137.57;;;15.90;99.90;;;;;;5081732;28;20458;-64
2024/04/05 09:41:50;;;;;;;200.57;193.77;;;15.80;99.90;;;;;;5074481;28;20462;-64
2024/04/05 09:44:18;;;;;;;298.97;288.43;;;15.70;99.90;;;;;;5080519;28;20482;-64
2024/04/05 09:46:44;;;;;;;308.63;298.57;;;15.80;99.90;;;;;;5082903;28;20508;-64
2024/04/05 09:49:11;;;;;;;288.47;279.10;;;15.80;99.90;;;;;;5086219;28;20493;-64
2024/04/05 09:51:44;;;;;;;278.57;269.40;;;15.90;99.90;;;;;;5088312;28;20442;-64
2024/04/05 09:54:12;;;;;;;273.97;265.17;;;15.80;99.90;;;;;;5084594;28;20477;-64
2024/04/05 09:56:39;;;;;;;297.87;287.87;;;15.70;99.90;;;;;;5085746;28;20443;-64
2024/04/05 09:59:11;;;;;;;240.57;232.37;;;15.90;99.90;;;;;;5080768;28;21101;-64
2024/04/05 10:01:39;;;;;;;236.27;228.30;;;16.10;99.90;;;;;;5081699;28;20450;-65
2024/04/05 10:04:07;;;;;;;221.07;213.53;;;16.30;99.90;;;;;;5081171;28;20465;-64
2024/04/05 10:06:38;;;;;;;152.03;146.43;;;16.50;99.90;;;;;;5083768;28;20481;-64
2024/04/05 10:09:15;;;;;;;130.00;125.50;;;16.60;99.90;;;;;;5092676;28;20960;-65
2024/04/05 10:11:41;;;;;;;112.27;108.17;;;16.60;99.90;;;;;;5093433;28;20497;-64
2024/04/05 10:14:10;;;;;;;119.70;114.80;;;16.80;99.90;;;;;;5072859;28;20478;-64
2024/04/05 10:16:36;;;;;;;123.20;118.87;;;16.90;99.90;;;;;;5080724;28;20445;-64
2024/04/05 10:19:10;;;;;;;112.80;108.80;;;16.90;99.90;;;;;;5081320;28;20464;-63
2024/04/05 10:21:36;;;;;;;45.57;43.20;;;16.80;99.90;;;;;;5073129;28;20461;-64
2024/04/05 10:24:05;;;;;;;12.67;11.33;;;16.80;99.90;;;;;;5081280;28;20513;-64
2024/04/05 10:26:33;;;;;;;12.10;6.70;;;16.90;94.80;;;;;;5081047;28;20489;-64
2024/04/05 10:29:04;;;;;;;6.13;3.60;;;16.90;93.80;;;;;;5080748;28;20458;-65
2024/04/05 10:31:32;;;;;;;7.43;4.87;;;17.00;93.90;;;;;;5072613;28;20454;-64
2024/04/05 10:34:01;;;;;;;9.67;4.30;;;16.90;93.80;;;;;;5072487;28;20517;-64
2024/04/05 10:36:28;;;;;;;8.40;4.00;;;17.00;93.90;;;;;;5079176;28;20452;-63
2024/04/05 10:38:55;;;;;;;8.33;4.17;;;17.10;93.90;;;;;;5074248;28;20462;-62
2024/04/05 10:41:21;;;;;;;8.50;4.43;;;17.30;94.00;;;;;;5072509;28;20454;-64
2024/04/05 10:43:48;;;;;;;10.47;4.97;;;17.50;94.00;;;;;;5080816;28;21054;-64
2024/04/05 10:46:16;;;;;;;7.43;4.57;;;17.60;94.10;;;;;;5072155;28;20450;-64
2024/04/05 10:48:44;;;;;;;7.17;2.70;;;17.70;94.00;;;;;;5080948;28;20463;-64
2024/04/05 10:51:11;;;;;;;8.90;4.20;;;17.80;91.10;;;;;;5072191;28;20485;-64
2024/04/05 10:53:38;;;;;;;13.53;3.97;;;17.70;94.10;;;;;;5072275;28;20857;-64
2024/04/05 10:56:05;;;;;;;9.63;4.03;;;17.50;94.10;;;;;;5081094;28;20447;-64
2024/04/05 10:58:37;;;;;;;4.83;2.50;;;17.50;93.70;;;;;;5072176;28;20831;-63
2024/04/05 11:01:04;;;;;;;7.70;2.90;;;17.50;90.60;;;;;;5075159;28;20457;-64
2024/04/05 11:03:32;;;;;;;4.60;2.20;;;17.60;83.90;;;;;;5084407;28;20477;-64
2024/04/05 11:06:04;;;;;;;6.20;2.10;;;17.60;83.90;;;;;;5073848;28;20505;-64
2024/04/05 11:08:32;;;;;;;7.50;2.70;;;17.70;84.00;;;;;;5079395;28;20481;-64
2024/04/05 11:10:58;;;;;;;5.53;2.30;;;17.50;83.80;;;;;;5080720;28;20626;-64
2024/04/05 11:13:27;;;;;;;6.47;1.90;;;17.50;83.80;;;;;;5080239;28;20569;-64
2024/04/05 11:16:00;;;;;;;4.93;1.80;;;17.40;83.70;;;;;;5080264;28;20508;-63
2024/04/05 11:18:27;;;;;;;14.97;2.70;;;17.40;83.60;;;;;;5072203;28;20454;-64
2024/04/05 11:20:53;;;;;;;4.83;1.87;;;17.50;83.80;;;;;;5080029;28;20548;-64
2024/04/05 11:23:21;;;;;;;7.23;1.77;;;17.50;83.70;;;;;;5071918;28;20569;-64
2024/04/05 11:25:51;;;;;;;7.07;1.83;;;17.50;83.80;;;;;;5072452;28;20200;-64
2024/04/05 11:28:22;;;;;;;8.10;2.30;;;17.50;84.50;;;;;;5078852;28;20577;-64
2024/04/05 11:30:48;;;;;;;8.10;1.80;;;17.50;83.80;;;;;;5079708;28;20465;-64
2024/04/05 11:33:15;;;;;;;5.73;2.13;;;17.40;83.60;;;;;;5080366;28;20493;-64
2024/04/05 11:35:43;;;;;;;8.50;2.37;;;17.50;83.40;;;;;;5080394;28;20454;-64
2024/04/05 11:38:09;;;;;;;6.90;2.30;;;17.50;83.70;;;;;;5071835;28;20458;-65
2024/04/05 11:40:37;;;;;;;5.90;1.93;;;17.70;83.40;;;;;;5079939;28;20465;-65
2024/04/05 11:43:08;;;;;;;5.63;1.77;;;17.80;83.90;;;;;;5080291;28;20506;-64
2024/04/05 11:45:34;;;;;;;7.33;2.17;;;17.80;83.80;;;;;;5071589;28;20983;-65
2024/04/05 11:48:01;;;;;;;6.17;1.90;;;17.90;78.50;;;;;;5071453;28;20535;-64
2024/04/05 11:50:27;;;;;;;7.73;2.40;;;18.00;76.40;;;;;;5077880;28;20508;-64
2024/04/05 11:52:54;;;;;;;7.80;2.33;;;18.10;76.50;;;;;;5073139;28;20565;-65
2024/04/05 11:55:20;;;;;;;6.47;2.10;;;18.20;76.60;;;;;;5072052;28;20196;-64
2024/04/05 11:57:48;;;;;;;7.97;2.37;;;18.20;76.40;;;;;;5079983;28;20456;-64
2024/04/05 12:00:14;;;;;;;6.20;2.30;;;18.30;70.40;;;;;;5071354;28;20200;-64
2024/04/05 12:02:41;;;;;;;7.40;2.23;;;18.40;68.70;;;;;;5071650;28;20484;-64
2024/04/05 12:05:07;;;;;;;12.90;2.33;;;18.60;68.70;;;;;;5075143;28;20445;-64
2024/04/05 12:07:34;;;;;;;6.37;1.90;;;18.70;69.50;;;;;;5075775;28;20528;-64
2024/04/05 12:10:00;;;;;;;9.03;1.97;;;18.50;68.40;;;;;;5071077;28;20465;-64
2024/04/05 12:12:28;;;;;;;9.33;2.17;;;18.20;68.40;;;;;;5079737;28;20454;-64